RAAF Base Richmond
YSRI : now visible

Airfield :











YOU CAN JOIN US ON...

 
LOGIN :

Register | Disclaimer

   EN    FR    IT 

 









Legend :    VFR   Marginal VFR   IFR   Intensive IFR   Very Intensive IFR
Visi :
Ceiling :
>= 8 km
>= 3000ft
5 to 8 km
1000 to 3000 ft
1500m to 5 km
500 to 1000 ft
800 to 1500m
200 to 500 ft
< 800m
< 200 ft
Symbols :   Thunderstorms  Fog  Heavy snow  Heavy precipitations  Wind > 20 kt






- Airport Elevation : 67 ft


YSRI - RAAF Base Richmond

CURRENT METAR :
  • 220300Z AUTO 13012KT 9999 // ////// 25/13 Q1021

EXPIRED METARs :
  • 220230Z AUTO 12010KT 9999 // ////// 24/14 Q1022 RF00.0/000.0
  • 220200Z AUTO 13011KT 9999 // ////// 24/15 Q1022 RF00.0/000.0
  • 220130Z AUTO 24005KT 190V260 9999 // ////// 23/18 Q1023
  • 220100Z AUTO 20005KT 9999 // ////// 22/18 Q1023 RF00.0/000.0
  • 220030Z AUTO 17008KT 9999 // ////// 21/17 Q1024 RF00.0/000.0

TAF TAF YSRI
Valid from the 22 at 00:00 until the 23 at 00:00 UTC


212314Z 2200/2300 13014KT 9999 SCT030 BKN050
FM220900 17006KT 9999 SCT025
FM221400 22005KT 8000 -DZ BKN020
FM222300 16007KT 9999 NSW SCT030
YMMM FIR / Oceania



MET'MAP, your aeronautical weather chart ! - Copyright ORBIFLY December 2007 - Disclaimer

ORBIFLY MET'MAP TEAM :

Programming & Development : Alexandra Zaïnal
Concept & original design : Baudouin d'Aumeries
Assistance for programming : Marc-Olivier Méhu
Technical & hardware support : Manuel Goepfert

Contact : metmap@orbifly.com




SOURCES & CREDITS :

   NOAA       Earth
Advisory